sensor_id;sensor_type;location;lat;lon;timestamp;pressure;altitude;pressure_sealevel;temperature;humidity
5812;BME280;2932;52.400;9.558;2024-03-08T00:00:56;101604.56;;;10.40;51.31
5812;BME280;2932;52.400;9.558;2024-03-08T00:03:22;101605.19;;;10.37;51.36
5812;BME280;2932;52.400;9.558;2024-03-08T00:05:48;101613.47;;;10.28;51.44
5812;BME280;2932;52.400;9.558;2024-03-08T00:08:13;101610.56;;;10.33;51.52
5812;BME280;2932;52.400;9.558;2024-03-08T00:10:39;101602.41;;;10.28;51.64
5812;BME280;2932;52.400;9.558;2024-03-08T00:13:04;101601.41;;;10.24;52.12
5812;BME280;2932;52.400;9.558;2024-03-08T00:15:29;101600.75;;;10.27;51.58
5812;BME280;2932;52.400;9.558;2024-03-08T00:17:57;101598.75;;;10.19;51.79
5812;BME280;2932;52.400;9.558;2024-03-08T00:20:22;101604.00;;;10.20;51.96
5812;BME280;2932;52.400;9.558;2024-03-08T00:22:48;101599.59;;;10.19;51.77
5812;BME280;2932;52.400;9.558;2024-03-08T00:25:13;101596.50;;;10.21;51.53
5812;BME280;2932;52.400;9.558;2024-03-08T00:27:39;101596.31;;;10.17;51.65
5812;BME280;2932;52.400;9.558;2024-03-08T00:30:05;101605.38;;;10.09;51.92
5812;BME280;2932;52.400;9.558;2024-03-08T00:32:30;101609.75;;;10.10;52.06
5812;BME280;2932;52.400;9.558;2024-03-08T00:34:57;101605.22;;;10.14;51.96
5812;BME280;2932;52.400;9.558;2024-03-08T00:37:22;101604.69;;;10.03;52.17
5812;BME280;2932;52.400;9.558;2024-03-08T00:39:51;101603.22;;;9.97;52.30
5812;BME280;2932;52.400;9.558;2024-03-08T00:42:17;101600.59;;;9.92;52.17
5812;BME280;2932;52.400;9.558;2024-03-08T00:44:43;101597.38;;;9.99;52.19
5812;BME280;2932;52.400;9.558;2024-03-08T00:47:08;101594.59;;;9.99;52.01
5812;BME280;2932;52.400;9.558;2024-03-08T00:49:34;101587.34;;;9.81;52.08
5812;BME280;2932;52.400;9.558;2024-03-08T00:52:00;101582.69;;;9.90;52.39
5812;BME280;2932;52.400;9.558;2024-03-08T00:54:25;101585.44;;;9.90;52.21
5812;BME280;2932;52.400;9.558;2024-03-08T00:56:51;101582.38;;;9.91;52.34
5812;BME280;2932;52.400;9.558;2024-03-08T00:59:16;101579.78;;;9.95;52.20
5812;BME280;2932;52.400;9.558;2024-03-08T01:01:41;101573.59;;;9.89;51.89
5812;BME280;2932;52.400;9.558;2024-03-08T01:04:07;101569.06;;;9.93;51.93
5812;BME280;2932;52.400;9.558;2024-03-08T01:06:33;101562.28;;;9.77;52.07
5812;BME280;2932;52.400;9.558;2024-03-08T01:08:59;101568.28;;;9.70;52.56
5812;BME280;2932;52.400;9.558;2024-03-08T01:11:24;101559.47;;;9.68;52.81
5812;BME280;2932;52.400;9.558;2024-03-08T01:13:49;101555.09;;;9.67;52.67
5812;BME280;2932;52.400;9.558;2024-03-08T01:16:15;101559.91;;;9.53;53.05
5812;BME280;2932;52.400;9.558;2024-03-08T01:18:42;101559.44;;;9.60;53.05
5812;BME280;2932;52.400;9.558;2024-03-08T01:21:07;101548.94;;;9.70;52.64
5812;BME280;2932;52.400;9.558;2024-03-08T01:23:33;101549.94;;;9.75;52.63
5812;BME280;2932;52.400;9.558;2024-03-08T01:25:59;101546.03;;;9.76;52.64
5812;BME280;2932;52.400;9.558;2024-03-08T01:28:25;101540.31;;;9.72;52.35
5812;BME280;2932;52.400;9.558;2024-03-08T01:30:51;101533.47;;;9.69;52.38
5812;BME280;2932;52.400;9.558;2024-03-08T01:33:24;101532.97;;;9.67;52.53
5812;BME280;2932;52.400;9.558;2024-03-08T01:35:53;101532.31;;;9.62;52.34
5812;BME280;2932;52.400;9.558;2024-03-08T01:38:19;101526.50;;;9.72;52.37
5812;BME280;2932;52.400;9.558;2024-03-08T01:40:49;101523.69;;;9.55;52.34
5812;BME280;2932;52.400;9.558;2024-03-08T01:45:41;101517.03;;;9.64;52.79
5812;BME280;2932;52.400;9.558;2024-03-08T01:48:06;101517.09;;;9.73;52.39
5812;BME280;2932;52.400;9.558;2024-03-08T01:50:32;101506.81;;;9.65;52.35
5812;BME280;2932;52.400;9.558;2024-03-08T01:52:57;101503.41;;;9.59;52.63
5812;BME280;2932;52.400;9.558;2024-03-08T01:55:25;101496.50;;;9.48;52.31
5812;BME280;2932;52.400;9.558;2024-03-08T01:57:51;101499.44;;;9.52;52.48
5812;BME280;2932;52.400;9.558;2024-03-08T02:00:17;101490.94;;;9.40;52.57
5812;BME280;2932;52.400;9.558;2024-03-08T02:02:46;101495.00;;;9.42;52.55
5812;BME280;2932;52.400;9.558;2024-03-08T02:05:12;101489.97;;;9.44;52.78
5812;BME280;2932;52.400;9.558;2024-03-08T02:07:41;101491.63;;;9.45;52.57
5812;BME280;2932;52.400;9.558;2024-03-08T02:10:09;101490.13;;;9.39;52.78
5812;BME280;2932;52.400;9.558;2024-03-08T02:12:34;101489.63;;;9.37;52.62
5812;BME280;2932;52.400;9.558;2024-03-08T02:15:00;101481.88;;;9.17;52.80
5812;BME280;2932;52.400;9.558;2024-03-08T02:17:25;101477.25;;;9.03;53.17
5812;BME280;2932;52.400;9.558;2024-03-08T02:19:50;101476.66;;;8.93;53.15
5812;BME280;2932;52.400;9.558;2024-03-08T02:22:16;101477.09;;;8.86;53.26
5812;BME280;2932;52.400;9.558;2024-03-08T02:24:42;101479.44;;;8.93;53.40
5812;BME280;2932;52.400;9.558;2024-03-08T02:27:07;101471.53;;;9.00;53.31
5812;BME280;2932;52.400;9.558;2024-03-08T02:29:33;101477.75;;;9.06;53.41
5812;BME280;2932;52.400;9.558;2024-03-08T02:31:59;101477.75;;;9.06;53.40
5812;BME280;2932;52.400;9.558;2024-03-08T02:34:24;101475.91;;;9.01;53.41
5812;BME280;2932;52.400;9.558;2024-03-08T02:36:50;101472.03;;;9.02;53.40
5812;BME280;2932;52.400;9.558;2024-03-08T02:39:15;101481.88;;;8.94;53.58
5812;BME280;2932;52.400;9.558;2024-03-08T02:41:41;101476.09;;;9.05;53.19
5812;BME280;2932;52.400;9.558;2024-03-08T02:44:07;101468.59;;;8.96;53.30
5812;BME280;2932;52.400;9.558;2024-03-08T02:46:33;101466.31;;;8.98;53.45
5812;BME280;2932;52.400;9.558;2024-03-08T02:48:58;101462.44;;;8.99;53.33
5812;BME280;2932;52.400;9.558;2024-03-08T02:51:23;101460.72;;;9.12;53.32
5812;BME280;2932;52.400;9.558;2024-03-08T02:53:51;101461.81;;;9.02;53.33
5812;BME280;2932;52.400;9.558;2024-03-08T02:56:17;101458.09;;;9.07;53.36
5812;BME280;2932;52.400;9.558;2024-03-08T02:58:43;101453.72;;;9.06;53.28
5812;BME280;2932;52.400;9.558;2024-03-08T03:01:08;101450.63;;;8.85;53.35
5812;BME280;2932;52.400;9.558;2024-03-08T03:03:35;101453.72;;;8.84;53.69
5812;BME280;2932;52.400;9.558;2024-03-08T03:06:00;101447.69;;;8.82;53.80
5812;BME280;2932;52.400;9.558;2024-03-08T03:08:26;101444.06;;;8.73;53.65
5812;BME280;2932;52.400;9.558;2024-03-08T03:10:51;101445.59;;;8.79;53.74
5812;BME280;2932;52.400;9.558;2024-03-08T03:13:21;101444.06;;;8.73;53.86
5812;BME280;2932;52.400;9.558;2024-03-08T03:15:47;101432.34;;;8.67;53.74
5812;BME280;2932;52.400;9.558;2024-03-08T03:18:12;101434.59;;;8.65;54.02
5812;BME280;2932;52.400;9.558;2024-03-08T03:20:38;101437.75;;;8.72;53.78
5812;BME280;2932;52.400;9.558;2024-03-08T03:23:07;101427.66;;;8.67;53.74
5812;BME280;2932;52.400;9.558;2024-03-08T03:25:34;101434.91;;;8.63;54.10
5812;BME280;2932;52.400;9.558;2024-03-08T03:28:02;101437.06;;;8.66;53.96
5812;BME280;2932;52.400;9.558;2024-03-08T03:30:29;101422.50;;;8.75;53.95
5812;BME280;2932;52.400;9.558;2024-03-08T03:32:59;101420.88;;;8.74;53.38
5812;BME280;2932;52.400;9.558;2024-03-08T03:35:26;101422.38;;;8.57;53.96
5812;BME280;2932;52.400;9.558;2024-03-08T03:37:52;101420.97;;;8.46;54.11
5812;BME280;2932;52.400;9.558;2024-03-08T03:40:36;101425.16;;;8.44;54.16
5812;BME280;2932;52.400;9.558;2024-03-08T03:43:02;101428.38;;;8.37;54.14
5812;BME280;2932;52.400;9.558;2024-03-08T03:45:31;101424.13;;;8.53;54.15
5812;BME280;2932;52.400;9.558;2024-03-08T03:48:03;101423.75;;;8.46;54.00
5812;BME280;2932;52.400;9.558;2024-03-08T03:50:29;101428.28;;;8.28;53.91
5812;BME280;2932;52.400;9.558;2024-03-08T03:52:55;101423.03;;;8.41;54.07
5812;BME280;2932;52.400;9.558;2024-03-08T03:55:20;101420.13;;;8.37;54.11
5812;BME280;2932;52.400;9.558;2024-03-08T03:57:47;101424.81;;;8.37;54.08
5812;BME280;2932;52.400;9.558;2024-03-08T04:00:12;101419.94;;;8.33;54.27
5812;BME280;2932;52.400;9.558;2024-03-08T04:02:39;101422.38;;;8.35;54.35
5812;BME280;2932;52.400;9.558;2024-03-08T04:05:05;101421.25;;;8.36;54.22
5812;BME280;2932;52.400;9.558;2024-03-08T04:07:31;101419.63;;;8.35;54.45
5812;BME280;2932;52.400;9.558;2024-03-08T04:09:56;101416.41;;;8.42;54.34
5812;BME280;2932;52.400;9.558;2024-03-08T04:12:22;101413.53;;;8.47;54.26
5812;BME280;2932;52.400;9.558;2024-03-08T04:14:48;101423.69;;;8.38;54.10
5812;BME280;2932;52.400;9.558;2024-03-08T04:17:13;101420.50;;;8.30;54.24
5812;BME280;2932;52.400;9.558;2024-03-08T04:19:38;101415.09;;;8.39;54.14
5812;BME280;2932;52.400;9.558;2024-03-08T04:22:05;101419.63;;;8.35;54.21
5812;BME280;2932;52.400;9.558;2024-03-08T04:24:32;101418.47;;;8.36;53.93
5812;BME280;2932;52.400;9.558;2024-03-08T04:26:58;101415.03;;;8.17;54.15
5812;BME280;2932;52.400;9.558;2024-03-08T04:29:24;101411.84;;;8.23;54.17
5812;BME280;2932;52.400;9.558;2024-03-08T04:31:50;101411.66;;;8.20;54.34
5812;BME280;2932;52.400;9.558;2024-03-08T04:34:20;101407.19;;;8.10;54.49
5812;BME280;2932;52.400;9.558;2024-03-08T04:36:45;101403.31;;;8.11;54.65
5812;BME280;2932;52.400;9.558;2024-03-08T04:39:11;101410.44;;;8.12;54.52
5812;BME280;2932;52.400;9.558;2024-03-08T04:41:38;101396.03;;;8.15;54.93
5812;BME280;2932;52.400;9.558;2024-03-08T04:44:04;101395.16;;;8.06;54.55
5812;BME280;2932;52.400;9.558;2024-03-08T04:46:29;101395.31;;;7.87;54.88
5812;BME280;2932;52.400;9.558;2024-03-08T04:48:54;101389.69;;;7.79;54.70
5812;BME280;2932;52.400;9.558;2024-03-08T04:51:19;101394.50;;;7.73;55.12
5812;BME280;2932;52.400;9.558;2024-03-08T04:53:45;101389.78;;;7.87;55.15
5812;BME280;2932;52.400;9.558;2024-03-08T04:56:10;101393.47;;;7.83;55.31
5812;BME280;2932;52.400;9.558;2024-03-08T04:58:36;101396.22;;;7.83;55.14
5812;BME280;2932;52.400;9.558;2024-03-08T05:01:01;101396.94;;;7.88;55.19
5812;BME280;2932;52.400;9.558;2024-03-08T05:03:27;101390.09;;;7.86;54.91
5812;BME280;2932;52.400;9.558;2024-03-08T05:05:52;101390.31;;;7.76;55.03
5812;BME280;2932;52.400;9.558;2024-03-08T05:08:18;101401.13;;;7.72;54.99
5812;BME280;2932;52.400;9.558;2024-03-08T05:10:44;101391.34;;;7.80;55.18
5812;BME280;2932;52.400;9.558;2024-03-08T05:13:09;101386.03;;;7.69;55.14
5812;BME280;2932;52.400;9.558;2024-03-08T05:15:34;101382.97;;;7.71;55.29
5812;BME280;2932;52.400;9.558;2024-03-08T05:18:00;101381.75;;;7.63;55.42
5812;BME280;2932;52.400;9.558;2024-03-08T05:20:25;101380.72;;;7.73;54.98
5812;BME280;2932;52.400;9.558;2024-03-08T05:22:51;101380.84;;;7.68;55.27
5812;BME280;2932;52.400;9.558;2024-03-08T05:25:17;101381.34;;;7.70;55.25
5812;BME280;2932;52.400;9.558;2024-03-08T05:27:42;101379.69;;;7.83;55.17
5812;BME280;2932;52.400;9.558;2024-03-08T05:30:08;101388.06;;;7.78;55.36
5812;BME280;2932;52.400;9.558;2024-03-08T05:32:40;101390.22;;;7.81;55.10
5812;BME280;2932;52.400;9.558;2024-03-08T05:35:05;101384.59;;;7.86;55.06
5812;BME280;2932;52.400;9.558;2024-03-08T05:37:32;101384.59;;;7.72;55.27
5812;BME280;2932;52.400;9.558;2024-03-08T05:39:57;101387.25;;;7.63;55.25
5812;BME280;2932;52.400;9.558;2024-03-08T05:42:23;101379.94;;;7.59;55.24
5812;BME280;2932;52.400;9.558;2024-03-08T05:44:48;101383.19;;;7.61;55.43
5812;BME280;2932;52.400;9.558;2024-03-08T05:47:14;101377.78;;;7.69;55.30
5812;BME280;2932;52.400;9.558;2024-03-08T05:49:41;101380.22;;;7.71;55.42
5812;BME280;2932;52.400;9.558;2024-03-08T05:52:09;101376.25;;;7.63;55.17
5812;BME280;2932;52.400;9.558;2024-03-08T05:54:34;101379.50;;;7.65;55.23
5812;BME280;2932;52.400;9.558;2024-03-08T05:57:00;101375.13;;;7.64;55.37
5812;BME280;2932;52.400;9.558;2024-03-08T05:59:25;101378.69;;;7.65;55.13
5812;BME280;2932;52.400;9.558;2024-03-08T06:01:51;101379.59;;;7.74;55.22
5812;BME280;2932;52.400;9.558;2024-03-08T06:04:16;101381.34;;;7.70;54.98
5812;BME280;2932;52.400;9.558;2024-03-08T06:06:43;101386.34;;;7.68;55.31
5812;BME280;2932;52.400;9.558;2024-03-08T06:09:08;101383.59;;;7.68;55.22
5812;BME280;2932;52.400;9.558;2024-03-08T06:11:41;101379.31;;;7.76;55.00
5812;BME280;2932;52.400;9.558;2024-03-08T06:14:07;101381.53;;;7.87;54.75
5812;BME280;2932;52.400;9.558;2024-03-08T06:16:33;101382.97;;;7.85;54.90
5812;BME280;2932;52.400;9.558;2024-03-08T06:19:01;101383.47;;;7.87;55.06
5812;BME280;2932;52.400;9.558;2024-03-08T06:21:29;101387.66;;;7.84;54.99
5812;BME280;2932;52.400;9.558;2024-03-08T06:23:55;101375.00;;;7.83;55.08
5812;BME280;2932;52.400;9.558;2024-03-08T06:26:23;101374.28;;;7.78;55.14
5812;BME280;2932;52.400;9.558;2024-03-08T06:28:49;101378.28;;;7.72;54.92
5812;BME280;2932;52.400;9.558;2024-03-08T06:31:16;101371.31;;;7.88;55.01
5812;BME280;2932;52.400;9.558;2024-03-08T06:33:41;101382.94;;;7.98;54.91
5812;BME280;2932;52.400;9.558;2024-03-08T06:36:06;101376.97;;;8.05;54.61
5812;BME280;2932;52.400;9.558;2024-03-08T06:38:32;101373.41;;;8.04;54.67
5812;BME280;2932;52.400;9.558;2024-03-08T06:40:57;101370.94;;;8.17;54.64
5812;BME280;2932;52.400;9.558;2024-03-08T06:43:23;101380.91;;;8.26;54.58
5812;BME280;2932;52.400;9.558;2024-03-08T06:45:50;101372.44;;;8.37;54.55
5812;BME280;2932;52.400;9.558;2024-03-08T06:48:18;101370.16;;;8.61;53.96
5812;BME280;2932;52.400;9.558;2024-03-08T06:50:47;101374.16;;;8.55;53.74
5812;BME280;2932;52.400;9.558;2024-03-08T06:53:13;101376.00;;;8.59;53.69
5812;BME280;2932;52.400;9.558;2024-03-08T06:55:39;101369.09;;;8.71;53.43
5812;BME280;2932;52.400;9.558;2024-03-08T06:58:04;101375.78;;;8.78;53.33
5812;BME280;2932;52.400;9.558;2024-03-08T07:00:31;101370.44;;;8.82;53.35
5812;BME280;2932;52.400;9.558;2024-03-08T07:02:56;101380.53;;;8.86;53.22
5812;BME280;2932;52.400;9.558;2024-03-08T07:05:28;101381.22;;;8.92;53.09
5812;BME280;2932;52.400;9.558;2024-03-08T07:07:53;101370.03;;;8.97;53.25
5812;BME280;2932;52.400;9.558;2024-03-08T07:10:23;101372.66;;;9.02;52.99
5812;BME280;2932;52.400;9.558;2024-03-08T07:12:50;101374.34;;;9.12;53.14
5812;BME280;2932;52.400;9.558;2024-03-08T07:15:16;101366.88;;;9.12;52.83
5812;BME280;2932;52.400;9.558;2024-03-08T07:17:41;101377.78;;;9.26;52.58
5812;BME280;2932;52.400;9.558;2024-03-08T07:20:10;101368.75;;;9.34;52.71
5812;BME280;2932;52.400;9.558;2024-03-08T07:22:37;101363.34;;;9.29;52.79
5812;BME280;2932;52.400;9.558;2024-03-08T07:25:05;101368.09;;;9.37;52.70
5812;BME280;2932;52.400;9.558;2024-03-08T07:27:33;101363.13;;;9.56;52.67
5812;BME280;2932;52.400;9.558;2024-03-08T07:30:04;101358.09;;;9.58;52.51
5812;BME280;2932;52.400;9.558;2024-03-08T07:32:29;101354.53;;;9.58;52.00
5812;BME280;2932;52.400;9.558;2024-03-08T07:34:56;101362.97;;;9.53;51.96
5812;BME280;2932;52.400;9.558;2024-03-08T07:37:22;101349.47;;;9.60;51.98
5812;BME280;2932;52.400;9.558;2024-03-08T07:39:48;101355.84;;;9.78;52.05
5812;BME280;2932;52.400;9.558;2024-03-08T07:42:14;101350.97;;;9.83;52.17
5812;BME280;2932;52.400;9.558;2024-03-08T07:44:39;101353.09;;;9.86;51.91
5812;BME280;2932;52.400;9.558;2024-03-08T07:47:05;101345.75;;;9.73;51.94
5812;BME280;2932;52.400;9.558;2024-03-08T07:49:32;101343.50;;;9.84;51.70
5812;BME280;2932;52.400;9.558;2024-03-08T07:51:57;101340.28;;;9.99;51.69
5812;BME280;2932;52.400;9.558;2024-03-08T07:54:23;101347.59;;;9.95;51.52
5812;BME280;2932;52.400;9.558;2024-03-08T07:56:48;101342.88;;;9.95;51.54
5812;BME280;2932;52.400;9.558;2024-03-08T07:59:13;101348.69;;;9.77;51.75
5812;BME280;2932;52.400;9.558;2024-03-08T08:01:39;101335.69;;;9.68;51.97
5812;BME280;2932;52.400;9.558;2024-03-08T08:04:05;101334.72;;;9.82;51.88
5812;BME280;2932;52.400;9.558;2024-03-08T08:06:30;101331.16;;;9.90;52.08
5812;BME280;2932;52.400;9.558;2024-03-08T08:09:00;101336.03;;;9.93;51.54
5812;BME280;2932;52.400;9.558;2024-03-08T08:11:26;101338.31;;;10.08;51.50
5812;BME280;2932;52.400;9.558;2024-03-08T08:13:53;101327.56;;;10.07;51.57
5812;BME280;2932;52.400;9.558;2024-03-08T08:16:20;101336.84;;;10.11;51.77
5812;BME280;2932;52.400;9.558;2024-03-08T08:18:45;101340.75;;;10.10;51.83
5812;BME280;2932;52.400;9.558;2024-03-08T08:21:11;101322.84;;;10.07;51.55
5812;BME280;2932;52.400;9.558;2024-03-08T08:23:36;101330.69;;;10.31;51.24
5812;BME280;2932;52.400;9.558;2024-03-08T08:26:02;101322.06;;;10.32;51.09
5812;BME280;2932;52.400;9.558;2024-03-08T08:28:29;101328.88;;;10.44;51.11
5812;BME280;2932;52.400;9.558;2024-03-08T08:30:56;101318.09;;;10.77;50.88
5812;BME280;2932;52.400;9.558;2024-03-08T08:33:21;101310.63;;;10.60;50.85
5812;BME280;2932;52.400;9.558;2024-03-08T08:35:46;101314.88;;;10.57;50.54
5812;BME280;2932;52.400;9.558;2024-03-08T08:38:13;101306.88;;;10.64;50.45
5812;BME280;2932;52.400;9.558;2024-03-08T08:40:38;101302.41;;;10.81;50.36
5812;BME280;2932;52.400;9.558;2024-03-08T08:43:03;101299.03;;;10.75;50.17
5812;BME280;2932;52.400;9.558;2024-03-08T08:45:30;101299.25;;;10.53;50.41
5812;BME280;2932;52.400;9.558;2024-03-08T08:47:56;101302.00;;;10.61;50.11
5812;BME280;2932;52.400;9.558;2024-03-08T08:50:24;101286.72;;;10.93;49.86
5812;BME280;2932;52.400;9.558;2024-03-08T08:52:49;101286.81;;;11.14;49.81
5812;BME280;2932;52.400;9.558;2024-03-08T08:55:15;101280.47;;;11.14;49.51
5812;BME280;2932;52.400;9.558;2024-03-08T08:57:41;101281.19;;;10.93;50.14
5812;BME280;2932;52.400;9.558;2024-03-08T09:00:07;101291.13;;;11.24;49.59
5812;BME280;2932;52.400;9.558;2024-03-08T09:02:35;101297.63;;;10.98;49.40
5812;BME280;2932;52.400;9.558;2024-03-08T09:05:02;101284.28;;;11.30;49.36
5812;BME280;2932;52.400;9.558;2024-03-08T09:07:28;101281.94;;;11.11;49.38
5812;BME280;2932;52.400;9.558;2024-03-08T09:09:53;101265.88;;;11.25;49.27
5812;BME280;2932;52.400;9.558;2024-03-08T09:12:22;101278.53;;;11.35;49.56
5812;BME280;2932;52.400;9.558;2024-03-08T09:14:48;101273.44;;;11.46;49.16
5812;BME280;2932;52.400;9.558;2024-03-08T09:17:14;101276.59;;;11.35;48.89
5812;BME280;2932;52.400;9.558;2024-03-08T09:19:42;101278.50;;;11.64;48.52
5812;BME280;2932;52.400;9.558;2024-03-08T09:22:08;101266.72;;;11.67;48.65
5812;BME280;2932;52.400;9.558;2024-03-08T09:24:33;101261.78;;;11.82;48.62
5812;BME280;2932;52.400;9.558;2024-03-08T09:26:58;101249.56;;;11.74;48.53
5812;BME280;2932;52.400;9.558;2024-03-08T09:29:24;101263.91;;;11.76;48.34
5812;BME280;2932;52.400;9.558;2024-03-08T09:31:49;101254.41;;;11.86;48.31
5812;BME280;2932;52.400;9.558;2024-03-08T09:34:14;101252.31;;;11.83;48.26
5812;BME280;2932;52.400;9.558;2024-03-08T09:36:40;101255.41;;;11.81;48.18
5812;BME280;2932;52.400;9.558;2024-03-08T09:39:06;101241.81;;;12.21;48.13
5812;BME280;2932;52.400;9.558;2024-03-08T09:41:33;101235.34;;;12.17;47.53
5812;BME280;2932;52.400;9.558;2024-03-08T09:43:59;101226.13;;;11.92;47.62
5812;BME280;2932;52.400;9.558;2024-03-08T09:46:24;101230.31;;;12.31;47.49
5812;BME280;2932;52.400;9.558;2024-03-08T09:48:52;101235.88;;;12.44;47.24
5812;BME280;2932;52.400;9.558;2024-03-08T09:51:17;101227.28;;;12.24;47.11
5812;BME280;2932;52.400;9.558;2024-03-08T09:53:45;101222.31;;;12.30;47.24
5812;BME280;2932;52.400;9.558;2024-03-08T09:56:11;101211.34;;;12.46;47.06
5812;BME280;2932;52.400;9.558;2024-03-08T09:58:37;101207.94;;;12.73;46.67
5812;BME280;2932;52.400;9.558;2024-03-08T10:01:17;101209.44;;;13.19;46.72
5812;BME280;2932;52.400;9.558;2024-03-08T10:03:43;101209.44;;;13.07;46.07
5812;BME280;2932;52.400;9.558;2024-03-08T10:06:08;101208.50;;;13.27;45.82
5812;BME280;2932;52.400;9.558;2024-03-08T10:08:35;101195.19;;;12.96;45.69
5812;BME280;2932;52.400;9.558;2024-03-08T10:11:01;101208.84;;;13.14;45.90
5812;BME280;2932;52.400;9.558;2024-03-08T10:13:27;101196.19;;;13.41;45.61
5812;BME280;2932;52.400;9.558;2024-03-08T10:15:53;101194.91;;;13.50;45.49
5812;BME280;2932;52.400;9.558;2024-03-08T10:18:19;101187.78;;;13.65;45.42
5812;BME280;2932;52.400;9.558;2024-03-08T10:20:44;101187.72;;;14.05;45.08
5812;BME280;2932;52.400;9.558;2024-03-08T10:23:10;101183.53;;;14.27;44.62
5812;BME280;2932;52.400;9.558;2024-03-08T10:25:35;101182.13;;;14.33;44.07
5812;BME280;2932;52.400;9.558;2024-03-08T10:28:04;101170.44;;;14.43;44.06
5812;BME280;2932;52.400;9.558;2024-03-08T10:30:30;101179.09;;;14.10;43.92
5812;BME280;2932;52.400;9.558;2024-03-08T10:32:55;101174.84;;;14.28;44.25
5812;BME280;2932;52.400;9.558;2024-03-08T10:35:21;101162.25;;;14.19;44.44
5812;BME280;2932;52.400;9.558;2024-03-08T10:37:49;101168.41;;;14.56;43.98
5812;BME280;2932;52.400;9.558;2024-03-08T10:40:19;101142.16;;;14.57;43.57
5812;BME280;2932;52.400;9.558;2024-03-08T10:43:00;101152.59;;;14.60;43.59
5812;BME280;2932;52.400;9.558;2024-03-08T10:45:38;101147.56;;;14.65;43.65
5812;BME280;2932;52.400;9.558;2024-03-08T10:48:29;101164.00;;;14.71;43.60
5812;BME280;2932;52.400;9.558;2024-03-08T10:51:02;101143.69;;;14.70;43.64
5812;BME280;2932;52.400;9.558;2024-03-08T10:53:28;101135.63;;;15.00;43.45
5812;BME280;2932;52.400;9.558;2024-03-08T10:55:57;101150.78;;;14.67;43.39
5812;BME280;2932;52.400;9.558;2024-03-08T10:58:26;101145.13;;;14.64;43.52
5812;BME280;2932;52.400;9.558;2024-03-08T11:00:55;101136.75;;;15.15;43.47
5812;BME280;2932;52.400;9.558;2024-03-08T11:06:13;101119.75;;;15.39;43.12
5812;BME280;2932;52.400;9.558;2024-03-08T11:08:40;101125.94;;;15.48;43.06
5812;BME280;2932;52.400;9.558;2024-03-08T11:11:23;101113.09;;;15.63;42.70
5812;BME280;2932;52.400;9.558;2024-03-08T11:13:52;101098.69;;;15.61;42.60
5812;BME280;2932;52.400;9.558;2024-03-08T11:19:23;101098.13;;;15.52;42.84
5812;BME280;2932;52.400;9.558;2024-03-08T11:21:57;101092.38;;;16.06;42.83
5812;BME280;2932;52.400;9.558;2024-03-08T11:24:23;101090.22;;;16.19;42.10
5812;BME280;2932;52.400;9.558;2024-03-08T11:26:49;101085.94;;;15.60;42.43
5812;BME280;2932;52.400;9.558;2024-03-08T11:34:35;101063.97;;;16.73;41.44
5812;BME280;2932;52.400;9.558;2024-03-08T11:37:04;101066.25;;;17.60;41.01
5812;BME280;2932;52.400;9.558;2024-03-08T11:39:30;101050.94;;;17.84;40.24
5812;BME280;2932;52.400;9.558;2024-03-08T11:41:56;101059.88;;;17.26;40.03
5812;BME280;2932;52.400;9.558;2024-03-08T11:44:21;101041.91;;;17.98;40.10
5812;BME280;2932;52.400;9.558;2024-03-08T11:46:46;101030.28;;;18.51;39.58
5812;BME280;2932;52.400;9.558;2024-03-08T11:49:13;101036.38;;;18.60;38.66
5812;BME280;2932;52.400;9.558;2024-03-08T11:51:39;101021.06;;;19.23;38.12
5812;BME280;2932;52.400;9.558;2024-03-08T11:54:12;101017.84;;;19.17;38.39
5812;BME280;2932;52.400;9.558;2024-03-08T11:56:40;100997.25;;;18.81;38.58
5812;BME280;2932;52.400;9.558;2024-03-08T11:59:11;101032.56;;;18.96;38.51
5812;BME280;2932;52.400;9.558;2024-03-08T12:01:38;101008.81;;;19.88;37.70
5812;BME280;2932;52.400;9.558;2024-03-08T12:04:03;100998.69;;;20.79;36.89
5812;BME280;2932;52.400;9.558;2024-03-08T12:06:38;101004.09;;;21.33;36.15
5812;BME280;2932;52.400;9.558;2024-03-08T12:09:13;100988.28;;;20.58;36.26
5812;BME280;2932;52.400;9.558;2024-03-08T12:11:39;101003.56;;;20.36;36.57
5812;BME280;2932;52.400;9.558;2024-03-08T12:14:06;100992.88;;;21.84;35.57
5812;BME280;2932;52.400;9.558;2024-03-08T12:16:32;100996.59;;;22.26;34.47
5812;BME280;2932;52.400;9.558;2024-03-08T12:18:57;100989.94;;;23.18;34.09
5812;BME280;2932;52.400;9.558;2024-03-08T12:21:26;100978.31;;;23.93;33.73
5812;BME280;2932;52.400;9.558;2024-03-08T12:24:05;100982.81;;;24.14;33.51
5812;BME280;2932;52.400;9.558;2024-03-08T12:26:35;100965.06;;;24.57;32.96
5812;BME280;2932;52.400;9.558;2024-03-08T12:29:23;100969.16;;;23.86;32.78
5812;BME280;2932;52.400;9.558;2024-03-08T12:31:54;100967.38;;;24.42;32.55
5812;BME280;2932;52.400;9.558;2024-03-08T12:34:20;100960.56;;;25.55;31.96
5812;BME280;2932;52.400;9.558;2024-03-08T12:36:49;100946.78;;;25.89;30.84
5812;BME280;2932;52.400;9.558;2024-03-08T12:39:17;100940.97;;;26.09;30.69
5812;BME280;2932;52.400;9.558;2024-03-08T12:41:47;100940.50;;;26.43;31.02
5812;BME280;2932;52.400;9.558;2024-03-08T12:44:13;100948.28;;;26.55;30.61
5812;BME280;2932;52.400;9.558;2024-03-08T12:46:38;100944.03;;;26.47;29.86
5812;BME280;2932;52.400;9.558;2024-03-08T12:49:09;100965.81;;;25.01;30.82
5812;BME280;2932;52.400;9.558;2024-03-08T12:51:35;100950.59;;;24.08;31.93
5812;BME280;2932;52.400;9.558;2024-03-08T12:54:01;100950.81;;;25.20;31.37
5812;BME280;2932;52.400;9.558;2024-03-08T12:56:33;100932.72;;;24.98;31.23
5812;BME280;2932;52.400;9.558;2024-03-08T12:59:02;100941.19;;;25.17;31.19
5812;BME280;2932;52.400;9.558;2024-03-08T13:01:28;100933.16;;;25.16;30.89
5812;BME280;2932;52.400;9.558;2024-03-08T13:03:54;100930.41;;;25.29;30.97
5812;BME280;2932;52.400;9.558;2024-03-08T13:06:20;100914.06;;;24.80;31.56
5812;BME280;2932;52.400;9.558;2024-03-08T13:08:50;100913.72;;;25.99;31.30
5812;BME280;2932;52.400;9.558;2024-03-08T13:11:19;100909.09;;;26.50;30.33
5812;BME280;2932;52.400;9.558;2024-03-08T13:13:45;100913.59;;;26.35;30.78
5812;BME280;2932;52.400;9.558;2024-03-08T13:16:10;100904.09;;;26.54;30.65
5812;BME280;2932;52.400;9.558;2024-03-08T13:18:40;100891.66;;;27.19;30.45
5812;BME280;2932;52.400;9.558;2024-03-08T13:21:07;100880.25;;;28.04;30.35
5812;BME280;2932;52.400;9.558;2024-03-08T13:23:37;100875.59;;;28.54;30.02
5812;BME280;2932;52.400;9.558;2024-03-08T13:26:09;100884.66;;;28.40;29.82
5812;BME280;2932;52.400;9.558;2024-03-08T13:28:48;100887.75;;;27.00;30.40